Terminal Aerodrome Forecast
Issued by NWS Louisville, KY

Home | Current Version | Previous Version | Text Only | Print | Product List | Glossary On
Versions: 1 2 3 4 5 6 7 8 9 10 11 12 13 14 15
247
FTUS43 KLMK 242326
TAFSDF
TAF
KSDF 242326Z 2500/2606 14005KT P6SM BKN250
     FM250600 14005KT P6SM SCT045
     FM250900 15006KT P6SM BKN045 WS018/20038KT
     FM251400 19008KT P6SM OVC025
     FM251700 21011G25KT P6SM OVC015
     FM252200 27014G23KT P6SM BKN040=

USA.gov is the U.S. government's official web portal to all federal, state and local government web resources and services.